Time;durP1;ratioP1;P1;durP2;ratioP2;P2;SDS_P1;SDS_P2;PMS_P1;PMS_P2;Temp;Humidity;BMP_temperature;BMP_pressure;BME280_temperature;BME280_humidity;BME280_pressure;Samples;Min_cycle;Max_cycle;Signal;HPM_P1;HPM_P2
2023/03/01 00:01:50;;;;;;;10.90;6.80;;;;;;;-3.46;100.00;100712.48;105437;1258;60821;-56
2023/03/01 00:04:19;;;;;;;11.70;7.30;;;;;;;-3.45;100.00;100712.44;105544;1260;74058;-56
2023/03/01 00:06:49;;;;;;;12.20;7.60;;;;;;;-3.44;100.00;100709.66;105418;1260;68030;-54
2023/03/01 00:09:17;;;;;;;10.10;6.70;;;;;;;-3.42;100.00;100702.72;105473;1260;74207;-54
2023/03/01 00:11:47;;;;;;;11.20;7.50;;;;;;;-3.39;100.00;100703.96;105524;1260;60461;-56
2023/03/01 00:14:17;;;;;;;11.20;7.20;;;;;;;-3.39;100.00;100700.39;105802;1257;61723;-57
2023/03/01 00:16:46;;;;;;;12.40;8.10;;;;;;;-3.42;100.00;100699.67;105578;1256;76061;-54
2023/03/01 00:19:17;;;;;;;12.90;8.50;;;;;;;-3.45;100.00;100701.86;105536;1262;68581;-54
2023/03/01 00:21:45;;;;;;;12.30;8.10;;;;;;;-3.48;100.00;100709.52;105502;1261;73133;-55
2023/03/01 00:24:14;;;;;;;14.10;9.50;;;;;;;-3.52;100.00;100703.30;105604;1258;61102;-57
2023/03/01 00:26:43;;;;;;;13.90;8.70;;;;;;;-3.58;100.00;100697.67;105642;1260;60513;-55
2023/03/01 00:29:12;;;;;;;12.80;8.50;;;;;;;-3.62;100.00;100698.91;105253;1257;75593;-59
2023/03/01 00:31:40;;;;;;;13.70;8.90;;;;;;;-3.64;100.00;100695.08;105463;1257;66788;-56
2023/03/01 00:34:09;;;;;;;13.80;8.50;;;;;;;-3.66;100.00;100699.42;105662;1260;73163;-59
2023/03/01 00:36:39;;;;;;;15.70;10.60;;;;;;;-3.68;100.00;100696.14;105529;1260;61730;-59
2023/03/01 00:39:13;;;;;;;15.40;9.90;;;;;;;-3.68;100.00;100700.18;105391;1260;61570;-55
2023/03/01 00:41:42;;;;;;;13.70;9.30;;;;;;;-3.68;100.00;100696.98;105334;1257;75359;-57
2023/03/01 00:44:10;;;;;;;12.20;8.20;;;;;;;-3.70;100.00;100694.41;105521;1261;68994;-55
2023/03/01 00:46:40;;;;;;;13.90;9.10;;;;;;;-3.72;100.00;100687.02;105585;1261;73207;-56
2023/03/01 00:49:12;;;;;;;15.50;10.70;;;;;;;-3.78;100.00;100675.61;105190;1260;61707;-56
2023/03/01 00:51:41;;;;;;;14.50;9.60;;;;;;;-3.85;100.00;100661.40;105260;1257;61910;-59
2023/03/01 00:54:09;;;;;;;16.70;11.30;;;;;;;-3.88;100.00;100664.27;105227;1260;75368;-59
2023/03/01 00:56:40;;;;;;;15.00;9.80;;;;;;;-3.95;100.00;100654.95;105259;1257;68702;-57
2023/03/01 00:59:08;;;;;;;14.50;10.20;;;;;;;-4.00;100.00;100650.27;105369;1261;73531;-57
2023/03/01 01:01:37;;;;;;;17.10;10.10;;;;;;;-4.04;100.00;100650.31;105438;1258;60762;-58
2023/03/01 01:04:09;;;;;;;12.60;9.50;;;;;;;-4.09;100.00;100647.02;105460;1257;60741;-56
2023/03/01 01:06:43;;;;;;;14.70;10.00;;;;;;;-4.13;100.00;100641.82;105326;1257;75251;-55
2023/03/01 01:09:19;;;;;;;13.40;9.70;;;;;;;-4.19;100.00;100634.98;105281;1261;68643;-58
2023/03/01 01:11:49;;;;;;;13.70;9.90;;;;;;;-4.25;100.00;100622.59;105631;1257;73118;-58
2023/03/01 01:14:18;;;;;;;17.10;11.00;;;;;;;-4.30;100.00;100618.91;105258;1258;60541;-55
2023/03/01 01:16:46;;;;;;;14.40;10.30;;;;;;;-4.36;100.00;100612.27;105390;1260;60436;-56
2023/03/01 01:19:21;;;;;;;14.70;10.30;;;;;;;-4.39;100.00;100608.52;105443;1257;75562;-55
2023/03/01 01:21:49;;;;;;;13.10;9.40;;;;;;;-4.43;100.00;100598.05;105432;1258;68504;-55
2023/03/01 01:24:19;;;;;;;15.10;9.90;;;;;;;-4.51;100.00;100593.71;105537;1257;74138;-56
2023/03/01 01:26:49;;;;;;;14.40;9.80;;;;;;;-4.54;100.00;100589.80;105399;1260;61221;-55
2023/03/01 01:29:17;;;;;;;14.90;9.80;;;;;;;-4.58;100.00;100585.10;105047;1257;61642;-55
2023/03/01 01:31:46;;;;;;;14.00;9.50;;;;;;;-4.64;100.00;100586.21;105327;1257;75092;-56
2023/03/01 01:34:17;;;;;;;15.70;10.00;;;;;;;-4.67;100.00;100585.67;105427;1257;67699;-56
2023/03/01 01:36:49;;;;;;;16.80;10.10;;;;;;;-4.70;100.00;100590.27;105418;1261;74182;-59
2023/03/01 01:39:19;;;;;;;15.70;10.70;;;;;;;-4.76;100.00;100591.27;105518;1257;60052;-58
2023/03/01 01:41:47;;;;;;;19.50;11.50;;;;;;;-4.82;100.00;100593.41;105273;1264;61430;-55
2023/03/01 01:44:26;;;;;;;14.90;9.80;;;;;;;-4.86;100.00;100591.23;105623;1256;73504;-55
2023/03/01 01:47:05;;;;;;;13.90;10.20;;;;;;;-4.90;100.00;100581.96;105385;1256;67777;-56
2023/03/01 01:49:45;;;;;;;14.80;9.40;;;;;;;-4.93;100.00;100580.75;105278;1263;74083;-55
2023/03/01 01:52:22;;;;;;;14.90;9.80;;;;;;;-4.96;100.00;100585.77;105146;1263;61543;-56
2023/03/01 01:55:09;;;;;;;15.50;10.60;;;;;;;-5.00;100.00;100589.70;105536;1260;61110;-56
2023/03/01 01:57:43;;;;;;;15.10;9.60;;;;;;;-5.03;100.00;100588.36;105319;1263;74779;-55
2023/03/01 02:00:20;;;;;;;14.90;9.50;;;;;;;-5.08;100.00;100589.64;105272;1260;67752;-55
2023/03/01 02:02:51;;;;;;;12.90;9.00;;;;;;;-5.14;100.00;100590.41;105189;1261;74144;-56
2023/03/01 02:05:26;;;;;;;14.30;9.70;;;;;;;-5.20;100.00;100598.99;105351;1262;61791;-57
2023/03/01 02:07:56;;;;;;;16.60;9.80;;;;;;;-5.22;100.00;100584.73;105157;1258;61683;-60
2023/03/01 02:10:25;;;;;;;12.80;8.90;;;;;;;-5.22;100.00;100581.00;105416;1257;75290;-56
2023/03/01 02:12:58;;;;;;;14.20;9.00;;;;;;;-5.19;100.00;100575.23;105284;1259;68318;-57
2023/03/01 02:15:31;;;;;;;13.70;9.90;;;;;;;-5.17;100.00;100567.34;105145;1263;74172;-56
2023/03/01 02:18:02;;;;;;;14.90;9.80;;;;;;;-5.17;100.00;100559.56;105207;1262;61339;-57
2023/03/01 02:20:40;;;;;;;14.50;9.20;;;;;;;-5.18;100.00;100545.20;105309;1257;61859;-57
2023/03/01 02:23:08;;;;;;;15.30;8.90;;;;;;;-5.20;100.00;100537.66;105532;1260;75351;-55
2023/03/01 02:25:40;;;;;;;14.00;9.20;;;;;;;-5.21;100.00;100528.88;105359;1257;68499;-59
2023/03/01 02:28:13;;;;;;;14.80;8.70;;;;;;;-5.23;100.00;100522.94;105271;1258;72214;-56
2023/03/01 02:31:41;;;;;;;;;;;;;;;-5.27;100.00;100525.15;105483;1256;60345;-54
2023/03/01 02:33:32;;;;;;;16.70;9.70;;;;;;;-5.30;100.00;100524.78;105491;1260;60563;-58
2023/03/01 02:36:04;;;;;;;13.20;8.30;;;;;;;-5.32;100.00;100533.03;105338;1257;75266;-56
2023/03/01 02:38:32;;;;;;;13.80;9.20;;;;;;;-5.35;100.00;100532.81;105303;1258;69262;-55
2023/03/01 02:41:02;;;;;;;14.50;9.20;;;;;;;-5.37;100.00;100535.27;105465;1256;73402;-57
2023/03/01 02:43:31;;;;;;;15.50;8.90;;;;;;;-5.36;100.00;100525.56;105362;1262;63567;-56
2023/03/01 02:46:08;;;;;;;13.90;9.30;;;;;;;-5.35;100.00;100523.32;105185;1264;60869;-58
2023/03/01 02:48:48;;;;;;;14.10;8.60;;;;;;;-5.37;100.00;100517.00;105212;1260;75381;-58
2023/03/01 02:51:29;;;;;;;15.70;8.50;;;;;;;-5.37;100.00;100520.23;105320;1260;68190;-57
2023/03/01 02:54:15;;;;;;;13.80;9.20;;;;;;;-5.38;100.00;100528.04;105199;1261;74032;-57
2023/03/01 02:56:48;;;;;;;15.90;9.60;;;;;;;-5.42;100.00;100527.55;105227;1262;62062;-56
2023/03/01 02:59:21;;;;;;;13.40;8.10;;;;;;;-5.41;100.00;100531.27;105391;1258;61921;-57
2023/03/01 03:01:51;;;;;;;13.50;8.70;;;;;;;-5.40;100.00;100535.43;105294;1261;75468;-57
2023/03/01 03:04:20;;;;;;;15.00;9.20;;;;;;;-5.39;100.00;100534.52;105442;1257;67768;-53
2023/03/01 03:06:51;;;;;;;;;;;;;;;-5.40;100.00;100525.08;105179;1261;74192;-54
2023/03/01 03:09:19;;;;;;;17.70;9.90;;;;;;;-5.38;100.00;100516.86;105430;1260;62593;-57
2023/03/01 03:11:54;;;;;;;13.30;8.30;;;;;;;-5.40;100.00;100519.14;105544;1257;61597;-58
2023/03/01 03:14:24;;;;;;;14.90;9.90;;;;;;;-5.40;100.00;100507.98;105546;1256;75122;-55
2023/03/01 03:16:52;;;;;;;15.00;9.60;;;;;;;-5.43;100.00;100502.02;105534;1257;68665;-55
2023/03/01 03:19:21;;;;;;;14.40;9.40;;;;;;;-5.43;100.00;100500.00;105521;1260;73156;-57
2023/03/01 03:21:50;;;;;;;16.20;10.10;;;;;;;-5.43;100.00;100506.45;105642;1256;62536;-57
2023/03/01 03:24:19;;;;;;;14.30;8.90;;;;;;;-5.42;100.00;100529.09;105431;1260;62173;-55
2023/03/01 03:26:49;;;;;;;14.70;8.40;;;;;;;-5.40;100.00;100536.60;105363;1260;75316;-56
2023/03/01 03:29:17;;;;;;;17.00;10.50;;;;;;;-5.39;100.00;100535.52;105573;1260;68704;-55
2023/03/01 03:32:07;;;;;;;14.60;9.00;;;;;;;-5.37;100.00;100515.30;105035;1257;74429;-56
2023/03/01 03:34:35;;;;;;;17.90;9.80;;;;;;;-5.34;100.00;100501.23;105331;1257;62543;-55
2023/03/01 03:38:01;;;;;;;13.70;9.40;;;;;;;-5.31;100.00;100499.09;105231;1260;61063;-55
2023/03/01 03:39:58;;;;;;;13.40;8.70;;;;;;;-5.34;100.00;100502.27;105382;1256;75414;-55
2023/03/01 03:42:27;;;;;;;15.40;9.60;;;;;;;-5.33;100.00;100517.16;105360;1257;69119;-55
2023/03/01 03:44:55;;;;;;;14.70;9.50;;;;;;;-5.28;100.00;100517.73;105434;1260;73158;-55
2023/03/01 03:47:24;;;;;;;15.30;9.90;;;;;;;-5.25;100.00;100525.02;105587;1260;63674;-57
2023/03/01 03:49:52;;;;;;;14.00;8.90;;;;;;;-5.23;100.00;100520.19;105317;1257;60703;-56
2023/03/01 03:52:21;;;;;;;17.00;10.10;;;;;;;-5.21;100.00;100508.39;105438;1257;74636;-56
2023/03/01 03:54:49;;;;;;;17.50;10.30;;;;;;;-5.21;100.00;100486.70;105471;1258;69209;-56
2023/03/01 03:57:18;;;;;;;14.10;9.30;;;;;;;-5.21;100.00;100479.23;105531;1260;74336;-57
2023/03/01 03:59:46;;;;;;;15.20;10.00;;;;;;;-5.21;100.00;100473.69;105105;1258;61738;-56
2023/03/01 04:02:21;;;;;;;15.40;10.20;;;;;;;-5.21;100.00;100471.13;105407;1260;62011;-56
2023/03/01 04:04:50;;;;;;;14.50;9.10;;;;;;;-5.21;100.00;100465.87;105445;1257;75444;-56
2023/03/01 04:07:19;;;;;;;16.10;10.50;;;;;;;-5.20;100.00;100455.65;105343;1260;68040;-58
2023/03/01 04:09:48;;;;;;;14.90;10.10;;;;;;;-5.17;100.00;100448.58;105396;1260;73196;-57
2023/03/01 04:12:20;;;;;;;17.50;10.40;;;;;;;-5.13;100.00;100457.17;105438;1257;63731;-57
2023/03/01 04:14:49;;;;;;;18.30;10.70;;;;;;;-5.11;100.00;100465.38;105389;1257;61872;-58
2023/03/01 04:17:18;;;;;;;14.90;9.30;;;;;;;-5.10;100.00;100468.04;105519;1257;74181;-58
2023/03/01 04:19:48;;;;;;;16.60;9.90;;;;;;;-5.07;100.00;100473.49;105354;1258;68395;-55
2023/03/01 04:22:18;;;;;;;16.20;10.50;;;;;;;-4.99;100.00;100468.33;105376;1257;73216;-57
2023/03/01 04:24:46;;;;;;;15.70;9.70;;;;;;;-4.83;100.00;100472.23;105546;1259;61569;-56
2023/03/01 04:27:15;;;;;;;16.40;10.80;;;;;;;-4.68;100.00;100469.45;105210;1258;61851;-58
2023/03/01 04:29:43;;;;;;;16.20;10.30;;;;;;;-4.49;100.00;100466.25;105275;1256;73505;-56
2023/03/01 04:32:14;;;;;;;14.50;9.50;;;;;;;-4.24;100.00;100465.39;105397;1257;67591;-55
2023/03/01 04:34:43;;;;;;;15.40;9.40;;;;;;;-3.96;100.00;100464.34;105571;1258;73059;-59
2023/03/01 04:37:15;;;;;;;15.80;10.30;;;;;;;-3.67;100.00;100458.50;105479;1260;61425;-56
2023/03/01 04:39:47;;;;;;;16.30;11.00;;;;;;;-3.41;100.00;100461.89;105365;1260;62197;-55
2023/03/01 04:42:19;;;;;;;14.40;9.40;;;;;;;-3.14;100.00;100459.67;105433;1260;75568;-55
2023/03/01 04:44:47;;;;;;;15.20;9.80;;;;;;;-2.85;100.00;100458.63;105295;1260;68034;-54
2023/03/01 04:47:16;;;;;;;15.60;10.00;;;;;;;-2.56;100.00;100459.09;105390;1260;73446;-55
2023/03/01 04:49:44;;;;;;;17.10;10.40;;;;;;;-2.33;100.00;100454.27;105366;1256;62615;-55
2023/03/01 04:52:13;;;;;;;16.30;10.40;;;;;;;-2.23;100.00;100451.91;105324;1260;62159;-55
2023/03/01 04:54:42;;;;;;;17.70;10.00;;;;;;;-2.22;100.00;100456.13;105382;1256;74581;-57
2023/03/01 04:57:11;;;;;;;15.30;10.50;;;;;;;-2.24;100.00;100452.50;105425;1260;68607;-55
2023/03/01 04:59:40;;;;;;;18.50;10.20;;;;;;;-2.22;100.00;100453.92;105393;1257;74156;-54
2023/03/01 05:02:09;;;;;;;18.90;9.70;;;;;;;-2.16;100.00;100449.14;105600;1257;62451;-55
2023/03/01 05:04:37;;;;;;;18.40;9.40;;;;;;;-2.09;100.00;100452.26;105317;1260;60580;-59
2023/03/01 05:07:06;;;;;;;17.00;10.70;;;;;;;-2.02;100.00;100450.62;105392;1257;75020;-59
2023/03/01 05:09:38;;;;;;;16.00;9.90;;;;;;;-1.94;100.00;100453.86;105370;1260;67870;-54
2023/03/01 05:12:06;;;;;;;15.70;10.10;;;;;;;-1.85;100.00;100448.86;105403;1261;74122;-54
2023/03/01 05:14:35;;;;;;;14.20;10.00;;;;;;;-1.76;100.00;100452.67;105555;1258;61978;-60
2023/03/01 05:17:07;;;;;;;16.40;10.30;;;;;;;-1.65;100.00;100443.11;105604;1257;61239;-56
2023/03/01 05:19:36;;;;;;;16.80;10.60;;;;;;;-1.55;100.00;100441.22;105299;1261;75124;-56
2023/03/01 05:22:04;;;;;;;19.50;11.10;;;;;;;-1.47;100.00;100442.23;105369;1257;67592;-55
2023/03/01 05:24:34;;;;;;;17.40;10.70;;;;;;;-1.39;100.00;100446.69;105435;1260;73170;-55
2023/03/01 05:27:04;;;;;;;15.00;10.60;;;;;;;-1.30;100.00;100453.04;105388;1260;62757;-55
2023/03/01 05:29:35;;;;;;;16.10;10.90;;;;;;;-1.17;100.00;100442.68;105375;1260;60896;-56
2023/03/01 05:32:04;;;;;;;18.90;12.90;;;;;;;-1.11;100.00;100441.94;105513;1258;75348;-56
2023/03/01 05:34:35;;;;;;;17.20;11.60;;;;;;;-1.00;100.00;100438.08;105463;1258;68379;-55
2023/03/01 05:37:04;;;;;;;20.70;12.20;;;;;;;-0.91;100.00;100448.09;105355;1261;73167;-55
2023/03/01 05:39:34;;;;;;;18.00;12.20;;;;;;;-0.79;100.00;100449.77;105409;1257;60767;-55
2023/03/01 05:42:03;;;;;;;18.60;12.70;;;;;;;-0.58;100.00;100450.02;105428;1256;61644;-58
2023/03/01 05:44:32;;;;;;;19.80;12.60;;;;;;;-0.43;100.00;100454.33;105435;1260;74313;-55
2023/03/01 05:47:01;;;;;;;17.10;10.70;;;;;;;-0.35;100.00;100449.11;105471;1258;68671;-55
2023/03/01 05:49:30;;;;;;;17.50;11.20;;;;;;;-0.31;100.00;100446.79;105603;1259;74550;-55
2023/03/01 05:52:01;;;;;;;;;;;;;;;-0.27;100.00;100449.56;105469;1256;61210;-55
2023/03/01 05:54:30;;;;;;;16.60;11.40;;;;;;;-0.17;100.00;100444.13;105529;1257;60733;-57
2023/03/01 05:56:59;;;;;;;17.00;10.50;;;;;;;-0.04;100.00;100437.88;105511;1257;75360;-56
2023/03/01 05:59:28;;;;;;;18.40;11.00;;;;;;;0.22;100.00;100432.20;105456;1260;67741;-56
2023/03/01 06:01:57;;;;;;;15.60;11.10;;;;;;;0.52;100.00;100425.86;105517;1258;73658;-56
2023/03/01 06:04:25;;;;;;;18.10;11.40;;;;;;;0.85;100.00;100413.30;105624;1260;60794;-60
2023/03/01 06:06:54;;;;;;;15.70;11.50;;;;;;;1.38;100.00;100404.39;105250;1258;62260;-57
2023/03/01 06:09:26;;;;;;;17.20;11.20;;;;;;;1.83;100.00;100399.36;105378;1260;76389;-56
2023/03/01 06:11:56;;;;;;;16.00;10.80;;;;;;;2.12;100.00;100399.40;105482;1258;66656;-56
2023/03/01 06:14:24;;;;;;;14.60;11.50;;;;;;;2.27;100.00;100407.77;105517;1260;74792;-56
2023/03/01 06:16:53;;;;;;;16.40;11.90;;;;;;;2.23;100.00;100406.05;105413;1256;60933;-55
2023/03/01 06:19:22;;;;;;;17.00;11.50;;;;;;;2.04;100.00;100399.87;105446;1260;61018;-55
2023/03/01 06:21:51;;;;;;;16.30;12.00;;;;;;;1.78;100.00;100400.22;105468;1258;74122;-57
2023/03/01 06:24:20;;;;;;;16.90;11.40;;;;;;;1.51;100.00;100399.00;105641;1259;67890;-58
2023/03/01 06:26:49;;;;;;;18.30;11.40;;;;;;;1.26;100.00;100400.58;105422;1258;74011;-55
2023/03/01 06:29:17;;;;;;;14.40;10.60;;;;;;;1.01;100.00;100395.02;105444;1256;61230;-57
2023/03/01 06:31:48;;;;;;;18.40;13.10;;;;;;;0.81;100.00;100389.00;105393;1259;61247;-56
2023/03/01 06:34:17;;;;;;;20.00;13.30;;;;;;;0.69;100.00;100388.04;105343;1257;75179;-58
2023/03/01 06:36:46;;;;;;;20.60;12.20;;;;;;;0.68;100.00;100381.38;105421;1258;67163;-54
2023/03/01 06:39:16;;;;;;;18.80;12.10;;;;;;;0.83;100.00;100380.85;105600;1258;73246;-54
2023/03/01 06:41:45;;;;;;;19.70;12.40;;;;;;;1.12;100.00;100372.95;105285;1257;60470;-57
2023/03/01 06:44:13;;;;;;;17.60;11.80;;;;;;;1.51;100.00;100368.11;105486;1257;61777;-60
2023/03/01 06:46:42;;;;;;;24.50;13.90;;;;;;;1.87;100.00;100363.21;105587;1257;74300;-54
2023/03/01 06:49:11;;;;;;;19.10;12.90;;;;;;;1.99;100.00;100356.06;105435;1258;68498;-56
2023/03/01 06:51:41;;;;;;;18.70;13.10;;;;;;;1.90;100.00;100361.95;105386;1257;74416;-56
2023/03/01 06:54:10;;;;;;;19.50;13.40;;;;;;;1.80;100.00;100360.19;105408;1260;60545;-56
2023/03/01 06:56:39;;;;;;;20.60;13.70;;;;;;;1.71;100.00;100361.77;105411;1260;61898;-56
2023/03/01 06:59:08;;;;;;;20.70;14.30;;;;;;;1.52;100.00;100356.61;105329;1260;75051;-55
2023/03/01 07:01:40;;;;;;;20.30;14.10;;;;;;;1.32;100.00;100352.88;105716;1257;68109;-55
2023/03/01 07:04:10;;;;;;;22.10;14.80;;;;;;;1.16;100.00;100350.36;105439;1260;73940;-55
2023/03/01 07:06:38;;;;;;;19.40;13.50;;;;;;;1.08;100.00;100350.98;105502;1257;60439;-54
2023/03/01 07:09:07;;;;;;;19.40;13.70;;;;;;;1.01;100.00;100351.02;105578;1256;61589;-55
2023/03/01 07:11:36;;;;;;;19.80;13.70;;;;;;;0.89;100.00;100350.27;105536;1257;75696;-58
2023/03/01 07:14:06;;;;;;;22.00;14.50;;;;;;;0.79;100.00;100340.73;105471;1257;68593;-55
2023/03/01 07:16:35;;;;;;;23.40;14.70;;;;;;;0.73;100.00;100336.92;105619;1261;74206;-55
2023/03/01 07:19:05;;;;;;;21.10;14.20;;;;;;;0.75;100.00;100330.13;105378;1258;60536;-55
2023/03/01 07:21:38;;;;;;;20.90;14.40;;;;;;;0.83;100.00;100326.95;105272;1257;60557;-59
2023/03/01 07:24:07;;;;;;;20.50;13.50;;;;;;;0.92;100.00;100323.66;105478;1256;73666;-59
2023/03/01 07:26:37;;;;;;;20.50;12.30;;;;;;;1.01;100.00;100312.89;105470;1258;68398;-55
2023/03/01 07:29:06;;;;;;;20.90;13.00;;;;;;;1.05;100.00;100304.02;105403;1256;73108;-55
2023/03/01 07:31:35;;;;;;;19.80;13.20;;;;;;;1.04;100.00;100302.08;105738;1257;61344;-60
2023/03/01 07:34:06;;;;;;;20.20;13.80;;;;;;;1.10;100.00;100296.09;105637;1259;61983;-56
2023/03/01 07:36:35;;;;;;;21.60;13.70;;;;;;;1.12;100.00;100288.34;105560;1258;73393;-57
2023/03/01 07:39:04;;;;;;;19.90;13.00;;;;;;;1.20;100.00;100288.91;105433;1258;67674;-54
2023/03/01 07:41:33;;;;;;;20.00;14.30;;;;;;;1.32;100.00;100292.26;105463;1256;72296;-56
2023/03/01 07:44:01;;;;;;;20.60;13.90;;;;;;;1.43;100.00;100282.99;105365;1260;61390;-58
2023/03/01 07:46:30;;;;;;;20.20;13.60;;;;;;;1.52;100.00;100281.73;105446;1256;62346;-55
2023/03/01 07:49:00;;;;;;;19.30;13.00;;;;;;;1.59;100.00;100283.88;105576;1257;74366;-56
2023/03/01 07:51:28;;;;;;;20.50;12.50;;;;;;;1.68;100.00;100282.15;105715;1256;68704;-60
2023/03/01 07:53:57;;;;;;;21.00;14.00;;;;;;;1.71;100.00;100282.80;105481;1258;72377;-56
2023/03/01 07:56:26;;;;;;;18.20;12.50;;;;;;;1.73;100.00;100276.64;105302;1260;60308;-55
2023/03/01 07:59:01;;;;;;;19.00;12.10;;;;;;;1.81;100.00;100276.36;105234;1257;61681;-55
2023/03/01 08:01:31;;;;;;;18.90;12.80;;;;;;;1.94;100.00;100277.14;105338;1260;75315;-56
2023/03/01 08:03:59;;;;;;;16.80;12.20;;;;;;;2.33;100.00;100275.89;105286;1257;67696;-55
2023/03/01 08:06:28;;;;;;;17.00;11.80;;;;;;;2.85;100.00;100286.21;105381;1256;72997;-55
2023/03/01 08:08:58;;;;;;;16.80;11.40;;;;;;;3.35;100.00;100287.23;105326;1260;60439;-56
2023/03/01 08:11:28;;;;;;;17.30;11.70;;;;;;;3.70;100.00;100291.66;105282;1256;61566;-56
2023/03/01 08:14:17;;;;;;;15.40;11.00;;;;;;;4.06;100.00;100286.27;105204;1256;75380;-56
2023/03/01 08:16:49;;;;;;;14.90;10.70;;;;;;;4.45;100.00;100279.41;105434;1256;67730;-57
2023/03/01 08:19:18;;;;;;;13.80;10.70;;;;;;;4.81;100.00;100266.71;105559;1260;74281;-57
2023/03/01 08:21:47;;;;;;;13.10;9.30;;;;;;;5.15;100.00;100261.43;105687;1258;60555;-59
2023/03/01 08:24:16;;;;;;;13.40;9.80;;;;;;;5.40;100.00;100253.70;105423;1260;61067;-56
2023/03/01 08:26:46;;;;;;;13.80;9.30;;;;;;;5.41;100.00;100247.73;105387;1257;74381;-55
2023/03/01 08:29:14;;;;;;;14.00;10.30;;;;;;;5.36;100.00;100244.38;105416;1260;68569;-56
2023/03/01 08:31:43;;;;;;;13.30;10.00;;;;;;;5.29;100.00;100243.19;105500;1258;73134;-55
2023/03/01 08:34:13;;;;;;;11.80;8.80;;;;;;;5.16;100.00;100243.66;105310;1260;60353;-55
2023/03/01 08:36:43;;;;;;;12.10;8.50;;;;;;;5.04;100.00;100244.77;105342;1257;317235;-55
2023/03/01 08:39:14;;;;;;;12.70;9.40;;;;;;;4.94;100.00;100234.86;105470;1257;74053;-55
2023/03/01 08:41:42;;;;;;;10.80;8.60;;;;;;;4.85;100.00;100233.77;105569;1259;67410;-56
2023/03/01 08:44:16;;;;;;;12.90;8.70;;;;;;;4.76;100.00;100225.23;105411;1259;74197;-55
2023/03/01 08:46:49;;;;;;;13.10;9.50;;;;;;;4.79;100.00;100212.86;105194;1260;60539;-56
2023/03/01 08:49:19;;;;;;;14.10;9.70;;;;;;;4.88;100.00;100209.94;105269;1256;60881;-56
2023/03/01 08:51:47;;;;;;;11.60;8.50;;;;;;;4.87;100.00;100225.88;105492;1259;74495;-56
2023/03/01 08:54:18;;;;;;;13.90;8.70;;;;;;;4.81;100.00;100232.80;105458;1258;68691;-56
2023/03/01 08:56:49;;;;;;;12.40;9.30;;;;;;;4.78;100.00;100248.82;105348;1259;74214;-57
2023/03/01 08:59:19;;;;;;;12.70;8.40;;;;;;;4.85;100.00;100252.23;105645;1255;60702;-56
2023/03/01 09:01:47;;;;;;;12.80;9.00;;;;;;;5.01;100.00;100244.88;105358;1258;61404;-56
2023/03/01 09:04:16;;;;;;;12.00;8.90;;;;;;;5.04;100.00;100232.54;105602;1260;75896;-57
2023/03/01 09:06:49;;;;;;;11.50;8.30;;;;;;;4.94;100.00;100233.87;105182;1257;68634;-55
2023/03/01 09:09:18;;;;;;;11.30;7.70;;;;;;;4.90;100.00;100239.02;105503;1259;74219;-56
2023/03/01 09:11:47;;;;;;;11.40;7.40;;;;;;;5.09;100.00;100238.96;105310;1256;61143;-55
2023/03/01 09:14:18;;;;;;;10.90;7.50;;;;;;;5.48;100.00;100235.87;105509;1259;61851;-56
2023/03/01 09:16:47;;;;;;;10.90;7.80;;;;;;;5.89;100.00;100229.59;105318;1260;75700;-56
2023/03/01 09:19:16;;;;;;;11.30;8.40;;;;;;;6.09;100.00;100223.08;105426;1257;67438;-56
2023/03/01 09:21:55;;;;;;;;;;;;;;;6.06;100.00;100222.84;105404;1258;74453;-61
2023/03/01 09:24:24;;;;;;;10.60;7.90;;;;;;;5.88;100.00;100222.08;105395;1257;60458;-55
2023/03/01 09:26:56;;;;;;;12.40;8.70;;;;;;;5.71;100.00;100220.65;105257;1257;61908;-58
2023/03/01 09:29:25;;;;;;;11.40;8.20;;;;;;;5.53;100.00;100222.72;105335;1256;74337;-55
2023/03/01 09:31:54;;;;;;;10.30;7.70;;;;;;;5.36;100.00;100223.27;105553;1259;67696;-58
2023/03/01 09:34:24;;;;;;;12.20;7.60;;;;;;;5.17;100.00;100215.66;105384;1258;72999;-55
2023/03/01 09:36:53;;;;;;;9.50;7.30;;;;;;;4.99;100.00;100213.70;105347;1258;61145;-59
2023/03/01 09:39:21;;;;;;;10.50;7.40;;;;;;;4.82;100.00;100216.74;105081;1257;60365;-56
2023/03/01 09:42:02;;;;;;;11.40;8.50;;;;;;;4.71;100.00;100209.42;105528;1260;75083;-59
2023/03/01 09:44:57;;;;;;;11.40;8.30;;;;;;;4.63;100.00;100219.20;105404;1257;68396;-55
2023/03/01 09:47:30;;;;;;;;;;;;;;;4.54;100.00;100214.38;105478;1258;74114;-56
2023/03/01 09:50:16;;;;;;;12.80;7.60;;;;;;;4.52;100.00;100206.16;105362;1260;61097;-55
2023/03/01 09:52:59;;;;;;;10.50;6.20;;;;;;;4.45;100.00;100206.11;105287;1258;61729;-55
2023/03/01 09:55:43;;;;;;;10.10;7.10;;;;;;;4.25;100.00;100205.41;105306;1257;75860;-56
2023/03/01 09:58:47;;;;;;;9.30;6.80;;;;;;;4.06;100.00;100201.49;105284;1261;67542;-56
2023/03/01 10:01:20;;;;;;;10.90;7.60;;;;;;;3.97;100.00;100204.45;105353;1256;73218;-57
2023/03/01 10:04:02;;;;;;;10.80;6.80;;;;;;;3.91;100.00;100207.61;105653;1257;60501;-57
2023/03/01 10:06:31;;;;;;;10.30;7.30;;;;;;;3.84;100.00;100208.41;105374;1257;61626;-55
2023/03/01 10:09:10;;;;;;;12.80;7.60;;;;;;;3.71;100.00;100206.28;105410;1261;75683;-58
2023/03/01 10:11:49;;;;;;;10.20;7.40;;;;;;;3.55;100.00;100209.11;105421;1261;67628;-55
2023/03/01 10:14:35;;;;;;;12.00;7.40;;;;;;;3.47;100.00;100209.20;105450;1260;74674;-55
2023/03/01 10:17:16;;;;;;;12.20;7.40;;;;;;;3.47;100.00;100205.96;105086;1261;60538;-57
2023/03/01 10:19:47;;;;;;;10.90;7.00;;;;;;;3.39;100.00;100204.23;105366;1257;61854;-55
2023/03/01 10:22:17;;;;;;;11.00;7.80;;;;;;;3.26;100.00;100206.75;105267;1258;74514;-54
2023/03/01 10:24:47;;;;;;;10.20;7.20;;;;;;;3.12;100.00;100202.11;105616;1258;68640;-57
2023/03/01 10:27:17;;;;;;;11.10;7.70;;;;;;;2.96;100.00;100204.09;105242;1257;73548;-55
2023/03/01 10:30:20;;;;;;;11.80;8.30;;;;;;;2.80;100.00;100207.23;105320;1261;60916;-55
2023/03/01 10:32:51;;;;;;;13.20;7.70;;;;;;;2.64;100.00;100208.73;105346;1260;60884;-55
2023/03/01 10:35:27;;;;;;;13.10;7.20;;;;;;;2.61;100.00;100209.85;105525;1260;75250;-55
2023/03/01 10:38:06;;;;;;;11.10;7.30;;;;;;;2.63;100.00;100209.30;105658;1259;67768;-58
2023/03/01 10:40:35;;;;;;;10.80;6.70;;;;;;;2.63;100.00;100205.35;105345;1260;73516;-56
2023/03/01 10:43:05;;;;;;;11.90;7.50;;;;;;;2.64;100.00;100211.66;105425;1257;61366;-56
2023/03/01 10:45:37;;;;;;;11.90;8.00;;;;;;;2.61;100.00;100205.27;105702;1260;60847;-57
2023/03/01 10:48:20;;;;;;;11.20;7.50;;;;;;;2.60;100.00;100207.05;105393;1260;75162;-56
2023/03/01 10:51:00;;;;;;;12.80;8.10;;;;;;;2.64;100.00;100207.53;105439;1259;67777;-55
2023/03/01 10:53:40;;;;;;;11.70;7.80;;;;;;;2.72;100.00;100203.09;105410;1257;74142;-55
2023/03/01 10:56:10;;;;;;;11.70;7.10;;;;;;;2.79;100.00;100195.79;105268;1259;62730;-56
2023/03/01 10:58:40;;;;;;;11.10;7.50;;;;;;;2.83;100.00;100196.98;105361;1258;60924;-56
2023/03/01 11:01:15;;;;;;;12.50;7.50;;;;;;;2.88;100.00;100191.08;105574;1260;76034;-57
2023/03/01 11:03:44;;;;;;;11.50;7.70;;;;;;;2.96;100.00;100185.92;105544;1258;68608;-56
2023/03/01 11:06:12;;;;;;;10.90;7.20;;;;;;;3.00;100.00;100192.77;105432;1259;74210;-57
2023/03/01 11:08:45;;;;;;;10.80;7.40;;;;;;;3.01;100.00;100192.19;105539;1259;61071;-56
2023/03/01 11:11:26;;;;;;;10.10;6.90;;;;;;;2.99;100.00;100192.67;105181;1257;61107;-56
2023/03/01 11:13:56;;;;;;;10.10;7.50;;;;;;;2.91;100.00;100188.20;105514;1260;75319;-56
2023/03/01 11:16:38;;;;;;;9.80;7.00;;;;;;;2.81;100.00;100187.92;105394;1259;67912;-58
2023/03/01 11:19:10;;;;;;;11.60;7.90;;;;;;;2.68;100.00;100193.80;105282;1257;74437;-56
2023/03/01 11:21:57;;;;;;;12.10;7.30;;;;;;;2.56;100.00;100197.60;105468;1256;62623;-56
2023/03/01 11:24:33;;;;;;;13.00;8.70;;;;;;;2.43;100.00;100194.83;105664;1259;61682;-59